createdAt,value
2022-12-09T00:00:06.465Z,840.00
2022-12-09T00:01:06.177Z,850.00
2022-12-09T00:02:06.332Z,867.00
2022-12-09T00:03:06.229Z,886.00
2022-12-09T00:04:06.075Z,913.00
2022-12-09T00:05:06.043Z,1001.00
2022-12-09T00:06:05.876Z,985.00
2022-12-09T00:07:06.195Z,979.00
2022-12-09T00:08:05.916Z,978.00
2022-12-09T00:09:06.277Z,984.00
2022-12-09T00:10:06.361Z,991.00
2022-12-09T00:11:06.132Z,1010.00
2022-12-09T00:12:05.803Z,1024.00
2022-12-09T00:13:05.868Z,1049.00
2022-12-09T00:14:05.818Z,1052.00
2022-12-09T00:15:06.028Z,1059.00
2022-12-09T00:16:05.982Z,1067.00
2022-12-09T00:17:06.123Z,1072.00
2022-12-09T00:18:05.785Z,1078.00
2022-12-09T00:19:05.918Z,1089.00
2022-12-09T00:20:06.394Z,1097.00
2022-12-09T00:21:05.824Z,1114.00
2022-12-09T00:22:05.742Z,1116.00
2022-12-09T00:23:06.075Z,1156.00
2022-12-09T00:24:05.698Z,1170.00
2022-12-09T00:25:05.742Z,1176.00
2022-12-09T00:26:05.693Z,1185.00
2022-12-09T00:27:05.850Z,1185.00
2022-12-09T00:28:05.651Z,1195.00
2022-12-09T00:29:05.707Z,1194.00
2022-12-09T00:30:06.231Z,1194.00
2022-12-09T00:31:05.768Z,1191.00
2022-12-09T00:32:05.776Z,1191.00
2022-12-09T00:33:05.873Z,1196.00
2022-12-09T00:34:05.632Z,1207.00
2022-12-09T00:35:05.985Z,1218.00
2022-12-09T00:36:05.826Z,1225.00
2022-12-09T00:37:05.607Z,1234.00
2022-12-09T00:38:05.563Z,1239.00
2022-12-09T00:39:05.968Z,1241.00
2022-12-09T00:40:06.167Z,1262.00
2022-12-09T00:41:05.667Z,1264.00
2022-12-09T00:42:05.596Z,1265.00
2022-12-09T00:43:05.783Z,1273.00
2022-12-09T00:44:05.568Z,1292.00
2022-12-09T00:45:05.660Z,1304.00
2022-12-09T00:46:05.652Z,1311.00
2022-12-09T00:47:05.747Z,1313.00
2022-12-09T00:48:05.697Z,1318.00
2022-12-09T00:49:05.614Z,1321.00
2022-12-09T01:09:13.148Z,749.00
2022-12-09T01:10:12.725Z,811.00
2022-12-09T01:11:12.774Z,968.00
2022-12-09T01:12:12.855Z,1036.00
2022-12-09T01:13:12.750Z,1039.00
2022-12-09T01:14:12.747Z,1049.00
2022-12-09T01:15:12.751Z,1070.00
2022-12-09T01:16:12.768Z,1090.00
2022-12-09T01:17:12.891Z,1096.00
2022-12-09T01:18:12.720Z,1106.00
2022-12-09T01:19:12.691Z,1127.00
2022-12-09T01:20:12.812Z,1181.00
2022-12-09T01:21:12.706Z,1186.00
2022-12-09T01:22:12.736Z,1191.00
2022-12-09T01:23:12.697Z,1201.00
2022-12-09T01:24:12.623Z,1206.00
2022-12-09T01:25:12.929Z,1209.00
2022-12-09T01:26:12.763Z,1211.00
2022-12-09T01:27:12.620Z,1218.00
2022-12-09T01:28:12.606Z,1226.00
2022-12-09T01:29:12.657Z,1233.00
2022-12-09T01:30:12.969Z,1236.00
2022-12-09T01:31:12.612Z,1241.00
2022-12-09T01:32:12.643Z,1246.00
2022-12-09T01:33:12.758Z,1250.00
2022-12-09T01:34:12.827Z,1254.00
2022-12-09T01:35:12.851Z,1256.00
2022-12-09T01:36:12.523Z,1255.00
2022-12-09T01:37:12.802Z,1258.00
2022-12-09T01:38:12.580Z,1264.00
2022-12-09T01:39:12.576Z,1272.00
2022-12-09T01:40:12.721Z,1273.00
2022-12-09T01:41:12.785Z,1274.00
2022-12-09T01:42:12.466Z,1277.00
2022-12-09T01:43:12.813Z,1281.00
2022-12-09T01:44:12.451Z,1287.00
2022-12-09T01:45:12.502Z,1290.00
2022-12-09T01:46:12.908Z,1294.00
2022-12-09T01:47:12.815Z,1299.00
2022-12-09T01:48:12.456Z,1305.00
2022-12-09T01:49:12.460Z,1311.00
2022-12-09T01:50:12.564Z,1315.00
2022-12-09T01:51:12.460Z,1318.00
2022-12-09T01:52:12.578Z,1325.00
2022-12-09T01:53:12.456Z,1335.00
2022-12-09T01:54:12.615Z,1351.00
2022-12-09T01:55:12.365Z,1354.00
2022-12-09T01:56:12.307Z,1360.00
2022-12-09T01:57:12.583Z,1362.00
2022-12-09T01:58:12.580Z,1360.00
2022-12-09T01:59:12.336Z,1363.00
2022-12-09T02:01:48.533Z,1346.00
2022-12-09T02:02:48.315Z,1347.00
2022-12-09T02:03:48.599Z,1345.00
2022-12-09T02:04:48.233Z,1351.00
2022-12-09T02:05:48.124Z,1352.00
2022-12-09T02:06:48.305Z,1356.00
2022-12-09T02:07:48.317Z,1363.00
2022-12-09T02:08:48.070Z,1370.00
2022-12-09T02:09:48.289Z,1380.00
2022-12-09T02:10:48.170Z,1384.00
2022-12-09T02:11:48.099Z,1389.00
2022-12-09T02:12:47.953Z,1396.00
2022-12-09T02:13:47.948Z,1403.00
2022-12-09T02:14:47.965Z,1409.00
2022-12-09T02:15:48.152Z,1418.00
2022-12-09T02:16:48.287Z,1424.00
2022-12-09T02:17:47.991Z,1432.00
2022-12-09T02:18:47.862Z,1437.00
2022-12-09T02:19:48.059Z,1445.00
2022-12-09T02:20:47.805Z,1452.00
2022-12-09T02:21:47.849Z,1457.00
2022-12-09T02:22:48.133Z,1459.00
2022-12-09T02:23:47.898Z,1464.00
2022-12-09T02:24:48.045Z,1465.00
2022-12-09T02:25:48.132Z,1470.00
2022-12-09T02:26:47.885Z,1478.00
2022-12-09T02:27:47.884Z,1484.00
2022-12-09T02:28:47.748Z,1487.00
2022-12-09T02:29:47.796Z,1495.00
2022-12-09T02:30:47.838Z,1502.00
2022-12-09T02:31:47.932Z,1507.00
2022-12-09T02:32:47.810Z,1510.00
2022-12-09T02:33:48.107Z,1516.00
2022-12-09T02:34:47.643Z,1518.00
2022-12-09T02:35:47.678Z,1523.00
2022-12-09T02:36:47.867Z,1531.00
2022-12-09T02:37:47.934Z,1541.00
2022-12-09T02:38:47.659Z,1544.00
2022-12-09T02:39:47.843Z,1541.00
2022-12-09T02:40:47.623Z,1542.00
2022-12-09T02:41:47.637Z,1544.00
2022-12-09T02:42:47.735Z,1549.00
2022-12-09T02:43:50.121Z,1558.00
2022-12-09T02:44:47.649Z,1567.00
2022-12-09T02:45:47.578Z,1574.00
2022-12-09T02:46:47.580Z,1579.00
2022-12-09T02:47:47.568Z,1579.00
2022-12-09T02:48:47.942Z,1578.00
2022-12-09T02:49:47.491Z,1581.00
2022-12-09T02:50:47.459Z,1582.00
2022-12-09T02:51:47.874Z,1582.00
2022-12-09T02:52:47.438Z,1584.00
2022-12-09T02:53:47.779Z,1587.00
2022-12-09T02:54:47.669Z,1589.00
2022-12-09T02:55:47.417Z,1588.00
2022-12-09T02:56:47.408Z,1587.00
2022-12-09T02:57:47.429Z,1585.00
2022-12-09T02:58:47.321Z,1587.00
2022-12-09T02:59:47.620Z,1592.00
2022-12-09T03:00:47.415Z,1591.00
2022-12-09T03:01:47.482Z,1595.00
2022-12-09T03:02:47.695Z,1601.00
2022-12-09T03:03:47.554Z,1605.00
2022-12-09T03:04:47.400Z,1612.00
2022-12-09T03:05:47.402Z,1615.00
2022-12-09T03:06:47.228Z,1616.00
2022-12-09T03:07:47.351Z,1612.00
2022-12-09T03:08:47.487Z,1615.00
2022-12-09T03:09:47.219Z,1619.00
2022-12-09T03:10:47.147Z,1621.00
2022-12-09T03:11:47.205Z,1627.00
2022-12-09T03:12:47.381Z,1630.00
2022-12-09T03:13:47.449Z,1635.00
2022-12-09T03:14:47.215Z,1641.00
2022-12-09T03:15:47.410Z,1646.00
2022-12-09T03:16:47.169Z,1653.00
2022-12-09T03:17:47.232Z,1661.00
2022-12-09T03:18:47.211Z,1665.00
2022-12-09T03:19:47.292Z,1670.00
2022-12-09T03:20:47.241Z,1669.00
2022-12-09T03:21:47.319Z,1673.00
2022-12-09T03:22:47.004Z,1676.00
2022-12-09T03:23:47.309Z,1673.00
2022-12-09T03:24:47.343Z,1673.00
2022-12-09T03:25:47.003Z,1679.00
2022-12-09T03:26:46.922Z,1683.00
2022-12-09T03:27:47.193Z,1692.00
2022-12-09T03:28:47.086Z,1699.00
2022-12-09T03:29:46.934Z,1702.00
2022-12-09T03:30:46.850Z,1708.00
2022-12-09T03:31:47.877Z,1708.00
2022-12-09T03:32:47.116Z,1710.00
2022-12-09T03:33:47.159Z,1714.00
2022-12-09T03:34:46.965Z,1719.00
2022-12-09T03:35:46.877Z,1724.00
2022-12-09T03:36:46.820Z,1728.00
2022-12-09T03:37:47.040Z,1727.00
2022-12-09T03:38:46.902Z,1731.00
2022-12-09T03:39:46.986Z,1734.00
2022-12-09T03:40:47.053Z,1739.00
2022-12-09T03:41:46.980Z,1741.00
2022-12-09T03:42:46.691Z,1740.00
2022-12-09T03:43:46.827Z,1744.00
2022-12-09T03:44:47.000Z,1745.00
2022-12-09T03:45:47.178Z,1745.00
2022-12-09T03:46:46.818Z,1751.00
2022-12-09T03:47:46.845Z,1753.00
2022-12-09T03:48:46.640Z,1755.00
2022-12-09T03:49:47.028Z,1758.00
2022-12-09T03:50:46.637Z,1762.00
2022-12-09T03:51:46.790Z,1764.00
2022-12-09T03:52:46.597Z,1768.00
2022-12-09T03:53:46.772Z,1772.00
2022-12-09T03:54:46.568Z,1774.00
2022-12-09T03:55:46.887Z,1774.00
2022-12-09T03:56:46.843Z,1778.00
2022-12-09T03:57:46.523Z,1781.00
2022-12-09T03:58:46.541Z,1783.00
2022-12-09T03:59:46.461Z,1786.00
2022-12-09T04:00:46.491Z,1787.00
2022-12-09T04:01:46.561Z,1790.00
2022-12-09T04:02:46.462Z,1791.00
2022-12-09T04:03:46.609Z,1791.00
2022-12-09T04:04:46.742Z,1791.00
2022-12-09T04:05:46.360Z,1796.00
2022-12-09T04:06:46.389Z,1798.00
2022-12-09T04:07:46.516Z,1797.00
2022-12-09T04:08:46.456Z,1797.00
2022-12-09T04:09:46.517Z,1799.00
2022-12-09T04:10:46.252Z,1800.00
2022-12-09T04:11:46.412Z,1800.00
2022-12-09T04:12:46.230Z,1799.00
2022-12-09T04:13:46.275Z,1803.00
2022-12-09T04:14:46.454Z,1806.00
2022-12-09T04:15:46.299Z,1802.00
2022-12-09T04:16:46.358Z,1805.00
2022-12-09T04:17:46.240Z,1809.00
2022-12-09T04:18:46.641Z,1815.00
2022-12-09T04:19:46.156Z,1817.00
2022-12-09T04:20:46.129Z,1822.00
2022-12-09T04:21:46.152Z,1823.00
2022-12-09T04:22:46.310Z,1822.00
2022-12-09T04:23:46.270Z,1821.00
2022-12-09T04:24:46.095Z,1829.00
2022-12-09T04:25:46.136Z,1833.00
2022-12-09T04:26:46.021Z,1831.00
2022-12-09T04:27:46.192Z,1835.00
2022-12-09T04:28:46.060Z,1852.00
2022-12-09T04:29:46.425Z,1855.00
2022-12-09T04:30:46.381Z,1856.00
2022-12-09T04:31:46.430Z,1859.00
2022-12-09T04:32:46.201Z,1858.00
2022-12-09T04:33:45.965Z,1858.00
2022-12-09T04:34:46.153Z,1856.00
2022-12-09T04:35:46.233Z,1854.00
2022-12-09T04:36:46.201Z,1854.00
2022-12-09T04:37:46.193Z,1857.00
2022-12-09T04:38:45.954Z,1856.00
2022-12-09T04:39:46.189Z,1858.00
2022-12-09T04:40:46.034Z,1861.00
2022-12-09T04:41:45.994Z,1858.00
2022-12-09T04:42:46.118Z,1859.00
2022-12-09T04:43:45.918Z,1860.00
2022-12-09T04:44:45.994Z,1863.00
2022-12-09T04:45:45.964Z,1863.00
2022-12-09T04:46:45.976Z,1862.00
2022-12-09T04:47:45.976Z,1865.00
2022-12-09T04:48:45.861Z,1868.00
2022-12-09T04:49:46.081Z,1874.00
2022-12-09T04:50:46.108Z,1877.00
2022-12-09T04:51:45.918Z,1881.00
2022-12-09T04:52:46.228Z,1889.00
2022-12-09T04:53:45.880Z,1892.00
2022-12-09T04:54:45.816Z,1894.00
2022-12-09T04:55:46.160Z,1893.00
2022-12-09T04:56:46.219Z,1889.00
2022-12-09T04:57:46.059Z,1884.00
2022-12-09T04:58:45.811Z,1887.00
2022-12-09T04:59:45.897Z,1890.00
2022-12-09T05:00:46.545Z,1888.00
2022-12-09T05:01:45.933Z,1893.00
2022-12-09T05:02:46.139Z,1897.00
2022-12-09T05:03:45.962Z,1896.00
2022-12-09T05:04:46.089Z,1901.00
2022-12-09T05:05:45.900Z,1904.00
2022-12-09T05:06:45.803Z,1904.00
2022-12-09T05:07:46.016Z,1910.00
2022-12-09T05:08:45.897Z,1913.00
2022-12-09T05:09:45.847Z,1911.00
2022-12-09T05:10:46.070Z,1915.00
2022-12-09T05:11:45.823Z,1915.00
2022-12-09T05:12:45.917Z,1917.00
2022-12-09T05:13:46.030Z,1918.00
2022-12-09T05:14:45.933Z,1930.00
2022-12-09T05:15:45.775Z,1939.00
2022-12-09T05:16:45.707Z,1946.00
2022-12-09T05:17:46.106Z,1954.00
2022-12-09T05:18:45.870Z,1963.00
2022-12-09T05:19:45.825Z,1969.00
2022-12-09T05:20:45.575Z,1969.00
2022-12-09T05:21:45.756Z,1968.00
2022-12-09T05:22:45.679Z,1969.00
2022-12-09T05:23:45.786Z,1963.00
2022-12-09T05:24:45.693Z,1952.00
2022-12-09T05:25:45.529Z,1950.00
2022-12-09T05:26:45.713Z,1951.00
2022-12-09T05:27:45.562Z,1957.00
2022-12-09T05:28:45.687Z,1961.00
2022-12-09T05:29:45.809Z,1962.00
2022-12-09T05:30:45.899Z,1963.00
2022-12-09T05:31:45.596Z,1966.00
2022-12-09T05:32:45.543Z,1967.00
2022-12-09T05:33:45.833Z,1970.00
2022-12-09T05:34:45.449Z,1970.00
2022-12-09T05:35:52.764Z,1976.00
2022-12-09T05:36:46.794Z,1975.00
2022-12-09T05:37:45.870Z,1980.00
2022-12-09T05:38:45.778Z,1981.00
2022-12-09T05:39:45.409Z,1975.00
2022-12-09T05:40:45.444Z,1975.00
2022-12-09T05:41:45.626Z,1973.00
2022-12-09T05:42:45.717Z,1976.00
2022-12-09T05:43:45.828Z,1980.00
2022-12-09T05:44:45.483Z,1983.00
2022-12-09T05:45:45.556Z,1985.00
2022-12-09T05:46:45.586Z,1983.00
2022-12-09T05:47:45.590Z,1986.00
2022-12-09T05:48:45.877Z,1988.00
2022-12-09T05:49:45.495Z,1992.00
2022-12-09T05:50:45.592Z,1997.00
2022-12-09T05:51:45.509Z,1998.00
2022-12-09T05:52:45.589Z,2002.00
2022-12-09T05:53:45.623Z,2002.00
2022-12-09T05:54:45.434Z,2007.00
2022-12-09T05:55:45.702Z,2017.00
2022-12-09T05:56:48.326Z,2029.00
2022-12-09T05:57:45.369Z,2036.00
2022-12-09T05:58:45.604Z,2056.00
2022-12-09T05:59:45.422Z,2070.00
2022-12-09T06:00:45.344Z,2084.00
2022-12-09T06:01:45.275Z,2093.00
2022-12-09T06:02:45.425Z,2096.00
2022-12-09T06:03:45.607Z,2096.00
2022-12-09T06:04:45.658Z,2102.00
2022-12-09T06:05:45.277Z,2106.00
2022-12-09T06:06:45.386Z,2108.00
2022-12-09T06:07:45.660Z,2107.00
2022-12-09T06:08:45.213Z,2099.00
2022-12-09T06:09:45.272Z,2089.00
2022-12-09T06:10:45.545Z,2081.00
2022-12-09T06:11:45.076Z,2085.00
2022-12-09T06:12:45.415Z,2096.00
2022-12-09T06:13:45.314Z,2167.00
2022-12-09T06:14:45.393Z,2178.00
2022-12-09T06:15:45.437Z,2175.00
2022-12-09T06:16:45.361Z,2155.00
2022-12-09T06:17:45.370Z,2128.00
2022-12-09T06:18:45.259Z,2121.00
2022-12-09T06:19:45.348Z,2116.00
2022-12-09T06:20:44.945Z,2114.00
2022-12-09T06:21:44.970Z,2115.00
2022-12-09T06:22:45.163Z,2122.00
2022-12-09T06:23:44.968Z,2126.00
2022-12-09T06:24:45.023Z,2119.00
2022-12-09T06:25:44.779Z,2116.00
2022-12-09T06:26:45.009Z,2112.00
2022-12-09T06:27:45.110Z,2111.00
2022-12-09T06:28:45.134Z,2127.00
2022-12-09T06:29:45.104Z,2123.00
2022-12-09T06:30:44.767Z,2115.00
2022-12-09T06:31:45.031Z,2115.00
2022-12-09T06:32:44.787Z,2113.00
2022-12-09T06:34:00.495Z,2111.00
2022-12-09T06:34:45.834Z,2107.00
2022-12-09T06:35:44.771Z,2105.00
2022-12-09T06:36:44.672Z,2101.00
2022-12-09T06:37:44.832Z,2097.00
2022-12-09T06:38:44.587Z,2098.00
2022-12-09T06:39:44.892Z,2097.00
2022-12-09T06:40:44.793Z,2096.00
2022-12-09T06:41:44.553Z,2096.00
2022-12-09T06:42:44.525Z,2093.00
2022-12-09T06:43:44.755Z,2093.00
2022-12-09T06:44:44.865Z,2097.00
2022-12-09T06:45:44.556Z,2097.00
2022-12-09T06:46:45.015Z,2099.00
2022-12-09T06:47:44.433Z,2099.00
2022-12-09T06:48:44.631Z,2099.00
2022-12-09T06:49:44.431Z,2104.00
2022-12-09T06:50:44.683Z,2105.00
2022-12-09T06:51:44.719Z,2101.00
2022-12-09T06:52:44.287Z,2098.00
2022-12-09T06:53:44.299Z,2098.00
2022-12-09T06:54:44.392Z,2099.00
2022-12-09T06:55:44.186Z,2093.00
2022-12-09T06:56:44.259Z,2102.00
2022-12-09T06:57:44.521Z,2111.00
2022-12-09T06:58:44.508Z,2115.00
2022-12-09T06:59:44.108Z,2123.00
2022-12-09T07:00:44.478Z,2139.00
2022-12-09T07:01:44.727Z,2147.00
2022-12-09T07:02:44.489Z,2155.00
2022-12-09T07:03:44.280Z,2159.00
2022-12-09T07:04:44.461Z,2158.00
2022-12-09T07:05:44.432Z,2168.00
2022-12-09T07:06:44.490Z,2174.00
2022-12-09T07:07:44.320Z,2188.00
2022-12-09T07:08:44.355Z,2191.00
2022-12-09T07:09:44.290Z,2197.00
2022-12-09T07:10:43.899Z,2203.00
2022-12-09T07:11:44.013Z,2202.00
2022-12-09T07:12:44.133Z,2191.00
2022-12-09T07:13:43.751Z,2170.00
2022-12-09T07:14:43.780Z,2146.00
2022-12-09T07:15:43.914Z,2136.00
2022-12-09T07:16:43.795Z,2131.00
2022-12-09T07:17:43.960Z,2134.00
2022-12-09T07:18:44.003Z,2152.00
2022-12-09T07:19:44.071Z,2172.00
2022-12-09T07:20:43.592Z,2173.00
2022-12-09T07:21:43.715Z,2177.00
2022-12-09T07:22:43.709Z,2183.00
2022-12-09T07:23:43.540Z,2188.00
2022-12-09T07:24:43.883Z,2188.00
2022-12-09T07:25:43.465Z,2191.00
2022-12-09T07:26:43.508Z,2188.00
2022-12-09T07:27:43.611Z,2178.00
2022-12-09T07:28:43.563Z,2175.00
2022-12-09T07:29:43.397Z,2171.00
2022-12-09T07:30:43.400Z,2169.00
2022-12-09T07:31:43.366Z,2173.00
2022-12-09T07:32:43.737Z,2176.00
2022-12-09T07:33:43.752Z,2178.00
2022-12-09T07:34:43.395Z,2168.00
2022-12-09T07:35:43.316Z,2161.00
2022-12-09T07:36:43.358Z,2160.00
2022-12-09T07:37:43.318Z,2156.00
2022-12-09T07:38:43.342Z,2145.00
2022-12-09T07:39:43.089Z,2136.00
2022-12-09T07:40:43.100Z,2135.00
2022-12-09T07:41:43.401Z,2136.00
2022-12-09T07:42:42.993Z,2139.00
2022-12-09T07:43:43.337Z,2143.00
2022-12-09T07:44:43.073Z,2146.00
2022-12-09T07:45:43.393Z,2149.00
2022-12-09T07:46:43.140Z,2156.00
2022-12-09T07:47:43.237Z,2160.00
2022-12-09T07:48:43.514Z,2162.00
2022-12-09T07:49:42.996Z,2168.00
2022-12-09T07:50:42.842Z,2164.00
2022-12-09T07:51:42.778Z,2162.00
2022-12-09T07:52:42.843Z,2165.00
2022-12-09T07:53:43.124Z,2170.00
2022-12-09T07:54:43.004Z,2175.00
2022-12-09T07:55:42.753Z,2174.00
2022-12-09T07:56:42.866Z,2177.00
2022-12-09T07:57:42.978Z,2176.00
2022-12-09T07:58:43.010Z,2178.00
2022-12-09T07:59:42.823Z,2180.00
2022-12-09T08:00:42.839Z,2182.00
2022-12-09T08:01:49.890Z,2185.00
2022-12-09T08:02:42.817Z,2190.00
2022-12-09T08:03:42.780Z,2193.00
2022-12-09T08:04:42.588Z,2199.00
2022-12-09T08:05:42.648Z,2198.00
2022-12-09T08:06:42.619Z,2200.00
2022-12-09T08:07:44.473Z,2202.00
2022-12-09T08:08:43.125Z,2200.00
2022-12-09T08:09:43.062Z,2198.00
2022-12-09T08:10:42.637Z,2195.00
2022-12-09T08:11:42.690Z,2189.00
2022-12-09T08:12:42.553Z,2188.00
2022-12-09T08:13:42.614Z,2186.00
2022-12-09T08:14:42.767Z,2184.00
2022-12-09T08:15:42.807Z,2183.00
2022-12-09T08:16:43.283Z,2191.00
2022-12-09T08:17:42.756Z,2190.00
2022-12-09T08:18:42.922Z,2190.00
2022-12-09T08:19:42.813Z,2192.00
2022-12-09T08:20:42.817Z,2195.00
2022-12-09T08:21:42.555Z,2195.00
2022-12-09T08:22:42.625Z,2190.00
2022-12-09T08:23:42.663Z,2190.00
2022-12-09T08:24:42.575Z,2186.00
2022-12-09T08:25:42.540Z,2184.00
2022-12-09T08:26:42.423Z,2188.00
2022-12-09T08:27:42.501Z,2187.00
2022-12-09T08:28:42.280Z,2186.00
2022-12-09T08:29:42.143Z,2185.00
2022-12-09T08:30:42.450Z,2185.00
2022-12-09T08:31:42.750Z,2189.00
2022-12-09T08:32:42.564Z,2191.00
2022-12-09T08:33:42.404Z,2190.00
2022-12-09T08:34:42.115Z,2189.00
2022-12-09T08:35:42.409Z,2189.00
2022-12-09T08:36:42.464Z,2190.00
2022-12-09T08:37:41.896Z,2195.00
2022-12-09T08:38:42.056Z,2199.00
2022-12-09T08:39:41.879Z,2198.00
2022-12-09T08:40:42.339Z,2210.00
2022-12-09T08:41:41.902Z,2223.00
2022-12-09T08:42:41.875Z,2225.00
2022-12-09T08:43:42.107Z,2225.00
2022-12-09T08:44:42.259Z,2219.00
2022-12-09T08:45:41.872Z,2221.00
2022-12-09T08:46:41.851Z,2224.00
2022-12-09T08:47:41.758Z,2222.00
2022-12-09T08:48:41.918Z,2222.00
2022-12-09T08:49:41.957Z,2221.00
2022-12-09T08:50:42.096Z,2223.00
2022-12-09T08:51:42.026Z,2226.00
2022-12-09T08:52:41.678Z,2231.00
2022-12-09T08:53:42.117Z,2231.00
2022-12-09T08:54:41.899Z,2233.00
2022-12-09T08:55:42.067Z,2238.00
2022-12-09T08:56:41.583Z,2239.00
2022-12-09T08:57:41.807Z,2241.00
2022-12-09T08:58:41.519Z,2238.00
2022-12-09T08:59:45.242Z,2232.00
2022-12-09T09:00:41.764Z,2227.00
2022-12-09T09:01:41.557Z,2220.00
2022-12-09T09:02:42.016Z,2224.00
2022-12-09T09:03:41.814Z,2226.00
2022-12-09T09:04:42.279Z,2227.00
2022-12-09T09:05:41.721Z,2228.00
2022-12-09T09:06:41.670Z,2224.00
2022-12-09T09:07:41.777Z,2221.00
2022-12-09T09:08:41.425Z,2222.00
2022-12-09T09:09:41.517Z,2222.00
2022-12-09T09:10:41.614Z,2228.00
2022-12-09T09:11:41.498Z,2229.00
2022-12-09T09:12:43.861Z,2234.00
2022-12-09T09:13:41.548Z,2237.00
2022-12-09T09:14:41.362Z,2237.00
2022-12-09T09:15:41.416Z,2242.00
2022-12-09T09:16:41.886Z,2243.00
2022-12-09T09:17:45.362Z,2241.00
2022-12-09T09:18:42.811Z,2240.00
2022-12-09T09:19:41.650Z,2242.00
2022-12-09T09:20:41.516Z,2245.00
2022-12-09T09:21:41.703Z,2249.00
2022-12-09T09:22:41.694Z,2255.00
2022-12-09T09:23:41.423Z,2251.00
2022-12-09T09:24:41.191Z,2254.00
2022-12-09T09:25:41.479Z,2258.00
2022-12-09T09:26:41.616Z,2257.00
2022-12-09T09:27:41.467Z,2259.00
2022-12-09T09:28:41.248Z,2256.00
2022-12-09T09:29:41.086Z,2261.00
2022-12-09T09:30:41.492Z,2267.00
2022-12-09T09:31:41.367Z,2270.00
2022-12-09T09:32:41.421Z,2271.00
2022-12-09T09:33:41.585Z,2272.00
2022-12-09T09:34:41.125Z,2275.00
2022-12-09T09:35:41.057Z,2276.00
2022-12-09T09:36:41.396Z,2283.00
2022-12-09T09:37:41.044Z,2290.00
2022-12-09T09:38:41.153Z,2295.00
2022-12-09T09:39:41.287Z,2294.00
2022-12-09T09:40:41.453Z,2298.00
2022-12-09T09:41:41.112Z,2298.00
2022-12-09T09:42:41.076Z,2304.00
2022-12-09T09:43:40.938Z,2311.00
2022-12-09T09:44:41.154Z,2309.00
2022-12-09T09:45:41.073Z,2306.00
2022-12-09T09:46:41.474Z,2301.00
2022-12-09T09:47:41.047Z,2302.00
2022-12-09T09:48:41.403Z,2298.00
2022-12-09T09:49:41.338Z,2294.00
2022-12-09T09:50:40.966Z,2295.00
2022-12-09T09:51:40.896Z,2300.00
2022-12-09T09:52:40.994Z,2300.00
2022-12-09T09:53:41.139Z,2305.00
2022-12-09T09:54:40.913Z,2310.00
2022-12-09T09:55:40.789Z,2307.00
2022-12-09T09:56:41.103Z,2302.00
2022-12-09T09:57:41.153Z,2296.00
2022-12-09T09:58:41.265Z,2300.00
2022-12-09T09:59:41.177Z,2307.00
2022-12-09T10:00:41.413Z,2315.00
2022-12-09T10:01:41.321Z,2315.00
2022-12-09T10:02:40.996Z,2324.00
2022-12-09T10:03:41.090Z,2325.00
2022-12-09T10:04:41.349Z,2330.00
2022-12-09T10:05:41.331Z,2338.00
2022-12-09T10:06:41.370Z,2348.00
2022-12-09T10:07:41.048Z,2347.00
2022-12-09T10:08:40.904Z,2351.00
2022-12-09T10:09:41.240Z,2353.00
2022-12-09T10:10:41.217Z,2355.00
2022-12-09T10:11:41.013Z,2352.00
2022-12-09T10:12:41.369Z,2348.00
2022-12-09T10:13:40.840Z,2344.00
2022-12-09T10:14:40.990Z,2345.00
2022-12-09T10:15:40.861Z,2349.00
2022-12-09T10:16:40.777Z,2346.00
2022-12-09T10:17:41.119Z,2349.00
2022-12-09T10:18:40.695Z,2353.00
2022-12-09T10:19:41.003Z,2354.00
2022-12-09T10:20:40.749Z,2354.00
2022-12-09T10:21:41.013Z,2356.00
2022-12-09T10:22:40.731Z,2357.00
2022-12-09T10:23:40.580Z,2361.00
2022-12-09T10:24:40.968Z,2361.00
2022-12-09T10:25:40.895Z,2365.00
2022-12-09T10:26:40.659Z,2366.00
2022-12-09T10:27:40.554Z,2369.00
2022-12-09T10:28:40.548Z,2367.00
2022-12-09T10:29:40.849Z,2372.00
2022-12-09T10:30:44.681Z,2373.00
2022-12-09T10:31:40.465Z,2375.00
2022-12-09T10:32:40.676Z,2375.00
2022-12-09T10:33:40.902Z,2375.00
2022-12-09T10:34:40.912Z,2373.00
2022-12-09T10:35:40.513Z,2381.00
2022-12-09T10:36:40.755Z,2379.00
2022-12-09T10:37:40.357Z,2381.00
2022-12-09T10:38:40.506Z,2385.00
2022-12-09T10:39:40.276Z,2385.00
2022-12-09T10:40:40.319Z,2386.00
2022-12-09T10:41:40.283Z,2386.00
2022-12-09T10:42:40.413Z,2387.00
2022-12-09T10:43:40.359Z,2394.00
2022-12-09T10:44:40.473Z,2394.00
2022-12-09T10:46:08.349Z,2397.00
2022-12-09T10:46:41.377Z,2406.00
2022-12-09T10:47:40.308Z,2407.00
2022-12-09T10:48:40.427Z,2407.00
2022-12-09T10:49:40.253Z,2407.00
2022-12-09T10:50:40.493Z,2409.00
2022-12-09T10:51:40.410Z,2416.00
2022-12-09T10:52:40.481Z,2424.00
2022-12-09T10:53:40.188Z,2424.00
2022-12-09T10:54:40.321Z,2425.00
2022-12-09T10:55:40.465Z,2424.00
2022-12-09T10:56:40.146Z,2200.00
2022-12-09T10:57:40.108Z,1037.00
2022-12-09T10:58:40.106Z,746.00
2022-12-09T10:59:40.173Z,661.00
2022-12-09T11:00:40.344Z,640.00
2022-12-09T11:01:40.715Z,632.00
2022-12-09T11:02:40.522Z,639.00
2022-12-09T11:03:40.631Z,714.00
2022-12-09T11:04:40.938Z,669.00
2022-12-09T11:05:40.397Z,578.00
2022-12-09T11:06:40.773Z,546.00
2022-12-09T11:07:41.019Z,565.00
2022-12-09T11:08:40.807Z,620.00
2022-12-09T11:09:40.724Z,650.00
2022-12-09T11:10:41.164Z,661.00
2022-12-09T11:11:40.603Z,675.00
2022-12-09T11:12:41.740Z,691.00
2022-12-09T11:13:40.642Z,717.00
2022-12-09T11:14:40.731Z,719.00
2022-12-09T11:15:40.680Z,715.00
2022-12-09T11:16:40.882Z,721.00
2022-12-09T11:17:40.739Z,721.00
2022-12-09T11:18:41.062Z,727.00
2022-12-09T11:19:40.862Z,736.00
2022-12-09T11:20:40.979Z,740.00
2022-12-09T11:21:42.254Z,742.00
2022-12-09T11:22:41.287Z,743.00
2022-12-09T11:23:41.022Z,744.00
2022-12-09T11:24:40.828Z,745.00
2022-12-09T11:25:40.640Z,747.00
2022-12-09T11:26:41.316Z,751.00
2022-12-09T11:27:40.688Z,753.00
2022-12-09T11:28:41.205Z,761.00
2022-12-09T11:29:41.044Z,785.00
2022-12-09T11:30:52.269Z,790.00
2022-12-09T11:31:41.856Z,800.00
2022-12-09T11:32:40.908Z,808.00
2022-12-09T11:33:40.952Z,816.00
2022-12-09T11:34:40.850Z,822.00
2022-12-09T11:35:41.095Z,829.00
2022-12-09T11:36:44.013Z,834.00
2022-12-09T11:37:40.618Z,845.00
2022-12-09T11:38:40.592Z,859.00
2022-12-09T11:39:40.621Z,896.00
2022-12-09T11:40:40.568Z,903.00
2022-12-09T11:41:40.603Z,895.00
2022-12-09T11:42:40.576Z,884.00
2022-12-09T11:43:40.642Z,877.00
2022-12-09T11:44:40.573Z,871.00
2022-12-09T11:45:40.655Z,867.00
2022-12-09T11:46:40.604Z,863.00
2022-12-09T11:48:20.329Z,854.00
2022-12-09T11:48:43.814Z,851.00
2022-12-09T11:49:40.530Z,847.00
2022-12-09T11:50:40.605Z,847.00
2022-12-09T11:51:40.542Z,841.00
2022-12-09T11:52:40.541Z,837.00
2022-12-09T11:53:40.516Z,834.00
2022-12-09T11:54:40.531Z,833.00
2022-12-09T11:55:40.506Z,833.00
2022-12-09T11:56:40.510Z,828.00
2022-12-09T11:57:40.466Z,823.00
2022-12-09T11:58:40.508Z,822.00
2022-12-09T11:59:40.476Z,820.00
2022-12-09T12:00:40.456Z,817.00
2022-12-09T12:01:40.496Z,817.00
2022-12-09T12:02:40.480Z,822.00
2022-12-09T12:03:40.395Z,825.00
2022-12-09T12:04:40.424Z,832.00
2022-12-09T12:05:40.402Z,839.00
2022-12-09T12:06:40.396Z,843.00
2022-12-09T12:07:40.419Z,848.00
2022-12-09T12:08:40.491Z,852.00
2022-12-09T12:09:40.331Z,857.00
2022-12-09T12:10:40.299Z,860.00
2022-12-09T12:11:40.289Z,862.00
2022-12-09T12:12:40.299Z,861.00
2022-12-09T12:13:40.268Z,864.00
2022-12-09T12:14:40.231Z,866.00
2022-12-09T12:15:40.203Z,870.00
2022-12-09T12:16:40.211Z,872.00
2022-12-09T12:17:40.253Z,872.00
2022-12-09T12:18:40.168Z,874.00
2022-12-09T12:19:40.124Z,875.00
2022-12-09T12:20:40.147Z,874.00
2022-12-09T12:21:40.118Z,874.00
2022-12-09T12:22:40.102Z,874.00
2022-12-09T12:23:40.070Z,877.00
2022-12-09T12:24:40.077Z,879.00
2022-12-09T12:25:40.072Z,886.00
2022-12-09T12:26:40.166Z,891.00
2022-12-09T12:27:41.015Z,896.00
2022-12-09T12:28:39.960Z,900.00